Time;durP1;ratioP1;P1;durP2;ratioP2;P2;SDS_P1;SDS_P2;PMS_P1;PMS_P2;Temp;Humidity;BMP_temperature;BMP_pressure;BME280_temperature;BME280_humidity;BME280_pressure;Samples;Min_cycle;Max_cycle;Signal;HPM_P1;HPM_P2
2022/06/15 00:00:43;;;;;;;15.63;11.30;;;;;;;12.34;82.98;101866.78;5027462;28;20022;-69
2022/06/15 00:03:09;;;;;;;17.77;11.25;;;;;;;12.34;83.49;101866.78;5026638;28;20093;-69
2022/06/15 00:05:34;;;;;;;15.50;11.25;;;;;;;12.31;83.54;101860.84;5026031;28;20133;-69
2022/06/15 00:08:00;;;;;;;21.20;11.60;;;;;;;12.30;83.72;101865.50;5024570;28;20465;-69
2022/06/15 00:10:25;;;;;;;16.88;10.70;;;;;;;12.30;83.95;101861.91;5027189;28;20037;-69
2022/06/15 00:12:50;;;;;;;17.33;11.52;;;;;;;12.34;83.78;101864.03;5026406;28;20030;-68
2022/06/15 00:15:16;;;;;;;17.48;10.85;;;;;;;12.33;83.85;101858.75;5026896;28;20093;-69
2022/06/15 00:17:41;;;;;;;18.10;11.63;;;;;;;12.29;83.82;101861.06;5026874;28;20075;-68
2022/06/15 00:20:07;;;;;;;20.23;11.43;;;;;;;12.30;83.71;101872.94;5026507;28;20025;-69
2022/06/15 00:22:33;;;;;;;14.68;11.02;;;;;;;12.27;83.90;101859.63;5025683;28;20124;-69
2022/06/15 00:24:58;;;;;;;16.63;11.55;;;;;;;12.23;83.54;101861.09;5025323;28;20037;-69
2022/06/15 00:27:23;;;;;;;16.92;11.98;;;;;;;12.20;83.50;101859.63;5026581;28;20056;-69
2022/06/15 00:29:49;;;;;;;18.67;12.95;;;;;;;12.17;83.78;101852.66;5026233;28;20059;-68
2022/06/15 00:32:14;;;;;;;16.65;11.80;;;;;;;12.15;83.73;101853.91;5026174;28;20037;-68
2022/06/15 00:34:39;;;;;;;19.17;11.65;;;;;;;12.15;84.31;101845.66;5026485;28;20432;-68
2022/06/15 00:37:05;;;;;;;20.17;11.85;;;;;;;12.10;84.19;101853.72;5025383;28;20029;-68
2022/06/15 00:39:32;;;;;;;17.50;12.15;;;;;;;12.05;84.92;101848.00;5026804;28;20235;-68
2022/06/15 00:41:58;;;;;;;18.98;11.75;;;;;;;12.00;84.35;101842.31;5026137;28;20084;-69
2022/06/15 00:44:26;;;;;;;19.08;11.68;;;;;;;11.97;84.31;101853.78;5025694;28;20025;-68
2022/06/15 00:46:55;;;;;;;;;;;;;;;12.13;82.19;101858.81;5026177;28;20025;-69
2022/06/15 00:49:47;;;;;;;18.73;11.63;;;;;;;12.01;84.10;101849.50;5026672;28;20262;-68
2022/06/15 00:52:16;;;;;;;16.27;11.95;;;;;;;11.93;84.46;101847.84;5022160;28;20049;-68
2022/06/15 00:54:45;;;;;;;17.75;11.65;;;;;;;11.94;85.02;101844.84;5025781;28;20033;-68
2022/06/15 00:57:11;;;;;;;16.95;11.77;;;;;;;11.89;84.45;101850.16;5025883;28;20101;-68
2022/06/15 00:59:48;;;;;;;17.25;10.93;;;;;;;11.96;84.63;101844.63;5025411;28;20061;-68
2022/06/15 01:02:14;;;;;;;19.52;11.25;;;;;;;11.93;84.48;101842.34;5025911;28;20040;-68
2022/06/15 01:05:02;;;;;;;14.80;11.07;;;;;;;11.94;84.73;101844.03;5025270;28;20137;-68
2022/06/15 01:07:30;;;;;;;18.52;11.52;;;;;;;11.97;84.17;101835.34;5025863;28;20482;-68
2022/06/15 01:10:12;;;;;;;;;;;;;;;12.12;81.94;101837.84;5025986;28;20033;-68
2022/06/15 01:13:06;;;;;;;14.68;11.20;;;;;;;12.05;83.48;101843.34;5031264;23;20536;-68
2022/06/15 01:15:50;;;;;;;15.18;11.32;;;;;;;12.09;82.94;101835.50;5017216;28;20128;-68
2022/06/15 01:18:15;;;;;;;17.83;11.55;;;;;;;12.10;83.27;101829.78;5023921;28;20040;-68
2022/06/15 01:21:14;;;;;;;17.83;11.93;;;;;;;12.19;82.62;101834.00;5025336;28;20100;-68
2022/06/15 01:23:58;;;;;;;15.15;10.90;;;;;;;12.20;81.97;101826.56;5025254;28;20331;-68
2022/06/15 01:26:45;;;;;;;13.27;10.43;;;;;;;12.25;81.77;101835.03;5025618;28;20033;-68
2022/06/15 01:29:31;;;;;;;14.93;10.85;;;;;;;12.20;82.43;101832.06;5022885;28;20116;-68
2022/06/15 01:32:21;;;;;;;17.02;11.27;;;;;;;12.17;82.19;101838.03;5025456;28;20033;-68
2022/06/15 01:34:57;;;;;;;17.38;11.50;;;;;;;12.11;82.63;101836.13;5025796;28;20053;-68
2022/06/15 01:37:46;;;;;;;17.67;11.70;;;;;;;12.18;82.02;101835.06;5005808;28;20037;-68
2022/06/15 01:40:31;;;;;;;17.90;11.18;;;;;;;12.15;81.93;101821.72;5006002;28;20026;-68
2022/06/15 01:43:07;;;;;;;17.65;11.57;;;;;;;12.08;82.93;101828.31;5006936;28;20129;-68
2022/06/15 01:45:36;;;;;;;17.08;11.30;;;;;;;12.05;82.48;101823.22;5025554;28;20485;-68
2022/06/15 01:48:03;;;;;;;;;;;;;;;12.17;80.70;101829.78;5023834;28;20033;-68
2022/06/15 01:50:37;;;;;;;19.98;12.40;;;;;;;12.02;82.72;101826.44;5025799;28;20412;-68
2022/06/15 01:53:20;;;;;;;18.42;12.50;;;;;;;12.02;82.68;101830.03;5025361;28;20021;-68
2022/06/15 01:55:50;;;;;;;21.70;12.48;;;;;;;11.88;82.68;101820.94;5025776;28;20064;-68
2022/06/15 01:58:19;;;;;;;19.60;12.63;;;;;;;11.86;82.95;101825.84;5024456;28;20060;-68
2022/06/15 02:01:11;;;;;;;17.27;11.98;;;;;;;11.81;83.38;101820.09;5024673;28;20021;-68
2022/06/15 02:04:07;;;;;;;17.45;11.55;;;;;;;11.83;83.28;101820.75;5024717;28;20036;-69
2022/06/15 02:07:07;;;;;;;17.85;12.23;;;;;;;11.83;83.10;101820.75;5026734;28;20108;-68
2022/06/15 02:09:44;;;;;;;16.30;11.48;;;;;;;11.71;83.70;101816.94;5029677;28;20026;-68
2022/06/15 02:12:11;;;;;;;15.70;12.18;;;;;;;11.66;84.60;101812.09;5029095;28;20056;-68
2022/06/15 02:14:44;;;;;;;14.50;12.20;;;;;;;11.59;84.03;101813.97;5026892;28;20076;-68
2022/06/15 02:17:48;;;;;;;20.77;12.15;;;;;;;11.60;84.32;101804.66;5028554;28;20101;-68
2022/06/15 02:20:22;;;;;;;20.38;12.32;;;;;;;11.58;84.32;101797.69;5010741;28;20053;-68
2022/06/15 02:22:50;;;;;;;16.88;12.30;;;;;;;11.55;84.39;101801.72;5029541;28;20029;-69
2022/06/15 02:25:20;;;;;;;15.80;12.25;;;;;;;11.53;84.53;101798.34;5029003;28;20128;-68
2022/06/15 02:27:46;;;;;;;16.38;12.00;;;;;;;11.54;84.41;101801.94;5028284;28;20034;-68
2022/06/15 02:30:20;;;;;;;21.27;12.60;;;;;;;11.43;84.59;101804.28;5027161;28;20029;-68
2022/06/15 02:32:48;;;;;;;16.88;12.88;;;;;;;11.46;84.62;101800.25;5028742;28;20026;-68
2022/06/15 02:35:14;;;;;;;;;;;;;;;11.57;82.88;101794.09;5029444;28;20604;-68
2022/06/15 02:37:40;;;;;;;16.83;12.73;;;;;;;11.46;84.67;101802.16;5028996;28;19980;-67
2022/06/15 02:40:07;;;;;;;15.68;12.10;;;;;;;11.39;84.57;101794.75;5028417;28;20041;-68
2022/06/15 02:42:36;;;;;;;20.67;12.77;;;;;;;11.40;84.95;101801.97;5026328;28;20035;-68
2022/06/15 02:45:06;;;;;;;18.17;12.88;;;;;;;11.38;85.21;101798.56;5008793;28;20470;-68
2022/06/15 02:47:34;;;;;;;20.92;12.60;;;;;;;11.33;85.20;101798.34;5008474;28;20038;-69
2022/06/15 02:50:00;;;;;;;17.92;13.10;;;;;;;11.28;85.52;101792.66;5012386;28;20032;-68
2022/06/15 02:52:31;;;;;;;17.70;12.32;;;;;;;11.29;85.61;101799.84;5028555;28;20134;-69
2022/06/15 02:54:57;;;;;;;17.02;12.07;;;;;;;11.27;85.23;101796.47;5028427;28;20104;-69
2022/06/15 02:57:23;;;;;;;21.02;13.10;;;;;;;11.26;85.54;101792.03;5028028;28;20117;-68
2022/06/15 02:59:48;;;;;;;16.35;12.60;;;;;;;11.26;85.67;101792.03;5026771;28;20044;-68
2022/06/15 03:02:15;;;;;;;19.25;12.60;;;;;;;11.23;85.60;101792.44;5025740;28;20028;-68
2022/06/15 03:04:44;;;;;;;17.52;12.50;;;;;;;11.27;85.95;101798.38;5028737;28;20032;-68
2022/06/15 03:07:11;;;;;;;19.50;12.57;;;;;;;11.26;85.73;101785.69;5028369;28;20072;-68
2022/06/15 03:09:37;;;;;;;23.75;13.00;;;;;;;11.27;86.10;101782.72;5027919;28;20025;-68
2022/06/15 03:12:03;;;;;;;18.42;13.13;;;;;;;11.26;85.53;101791.19;5027082;28;20026;-68
2022/06/15 03:14:28;;;;;;;22.02;13.18;;;;;;;11.25;85.95;101790.31;5026638;28;20041;-68
2022/06/15 03:16:54;;;;;;;21.60;13.10;;;;;;;11.29;85.61;101788.00;5027471;28;20030;-68
2022/06/15 03:19:19;;;;;;;22.75;12.73;;;;;;;11.31;85.71;101789.47;5028086;28;20381;-68
2022/06/15 03:21:44;;;;;;;18.90;12.80;;;;;;;11.30;85.36;101787.75;5028014;28;20035;-68
2022/06/15 03:24:10;;;;;;;24.00;13.73;;;;;;;11.30;85.78;101793.25;5027742;28;20477;-68
2022/06/15 03:26:35;;;;;;;19.33;13.45;;;;;;;11.32;86.25;101785.66;5027856;28;20037;-68
2022/06/15 03:29:00;;;;;;;21.98;13.27;;;;;;;11.30;85.87;101785.00;5025756;28;20029;-68
2022/06/15 03:31:29;;;;;;;17.08;12.80;;;;;;;11.32;86.29;101784.81;5027876;28;20108;-68
2022/06/15 03:33:54;;;;;;;;;;;;;;;11.44;84.43;101783.09;5027693;28;20056;-68
2022/06/15 03:36:20;;;;;;;21.90;13.17;;;;;;;11.29;85.89;101786.09;5028441;28;19956;-68
2022/06/15 03:38:45;;;;;;;19.90;12.90;;;;;;;11.28;86.10;101789.06;5027834;28;20280;-68
2022/06/15 03:41:11;;;;;;;23.45;13.38;;;;;;;11.33;85.53;101781.84;5027680;28;20018;-68
2022/06/15 03:43:37;;;;;;;20.10;12.88;;;;;;;11.33;85.13;101779.09;5022623;28;20083;-68
2022/06/15 03:46:02;;;;;;;27.75;13.50;;;;;;;11.33;85.04;101787.34;5027207;28;20033;-68
2022/06/15 03:48:27;;;;;;;23.27;12.80;;;;;;;11.34;85.56;101789.03;5027237;28;20030;-68
2022/06/15 03:50:53;;;;;;;19.20;12.85;;;;;;;11.34;85.54;101794.53;5026141;28;20021;-68
2022/06/15 03:53:18;;;;;;;22.63;13.82;;;;;;;11.35;85.98;101801.75;5027716;28;20030;-68
2022/06/15 03:55:43;;;;;;;21.55;13.73;;;;;;;11.38;85.47;101793.06;5027481;28;20030;-68
2022/06/15 03:58:14;;;;;;;25.05;13.25;;;;;;;11.40;85.53;101792.84;5025184;28;20381;-68
2022/06/15 04:00:40;;;;;;;21.95;13.40;;;;;;;11.41;85.31;101792.66;5027105;28;20112;-68
2022/06/15 04:03:06;;;;;;;22.75;13.70;;;;;;;11.44;85.22;101800.44;5026623;28;20029;-68
2022/06/15 04:05:35;;;;;;;19.90;13.18;;;;;;;11.44;85.04;101789.44;5027222;28;20041;-68
2022/06/15 04:10:44;;;;;;;19.38;13.20;;;;;;;11.42;86.37;101793.50;5025702;28;20699;-68
2022/06/15 04:13:09;;;;;;;23.20;14.38;;;;;;;11.43;85.76;101798.78;5025848;28;20054;-68
2022/06/15 04:15:35;;;;;;;23.15;14.13;;;;;;;11.40;85.35;101798.34;5026104;28;20376;-68
2022/06/15 04:18:00;;;;;;;23.30;14.55;;;;;;;11.40;86.25;101798.34;5026189;28;20107;-67
2022/06/15 04:20:32;;;;;;;18.83;14.23;;;;;;;11.44;85.83;101797.69;5027448;28;20025;-68
2022/06/15 04:23:08;;;;;;;26.02;15.10;;;;;;;11.37;85.95;101799.63;5026831;28;20059;-68
2022/06/15 04:25:37;;;;;;;18.40;14.32;;;;;;;11.49;86.01;101799.81;5026738;28;20533;-68
2022/06/15 04:28:04;;;;;;;21.42;14.45;;;;;;;11.60;85.89;101793.66;5025661;28;20080;-68
2022/06/15 04:30:30;;;;;;;22.42;15.63;;;;;;;11.62;85.55;101794.31;5025801;28;20033;-68
2022/06/15 04:32:55;;;;;;;25.25;15.52;;;;;;;11.56;86.59;101795.16;5026437;28;20025;-67
2022/06/15 04:35:21;;;;;;;20.88;15.35;;;;;;;11.59;86.35;101793.88;5026781;28;20108;-68
2022/06/15 04:37:46;;;;;;;23.67;15.77;;;;;;;11.55;86.27;101787.94;5027213;28;20037;-68
2022/06/15 04:40:12;;;;;;;27.58;17.00;;;;;;;11.61;86.03;101803.63;5024821;28;20562;-68
2022/06/15 04:42:39;;;;;;;22.38;15.50;;;;;;;11.56;85.99;101803.44;5025576;28;20066;-68
2022/06/15 04:45:05;;;;;;;28.15;15.98;;;;;;;11.59;86.43;101797.47;5026826;28;20044;-67
2022/06/15 04:47:30;;;;;;;28.27;17.58;;;;;;;11.57;87.01;101799.59;5026293;28;20041;-68
2022/06/15 04:49:55;;;;;;;22.23;17.83;;;;;;;11.58;86.63;101795.78;5022678;28;20037;-68
2022/06/15 04:52:20;;;;;;;26.08;18.23;;;;;;;11.58;87.00;101800.44;5024116;28;20500;-68
2022/06/15 04:54:46;;;;;;;24.67;19.15;;;;;;;11.63;86.94;101801.50;5025461;28;20033;-68
2022/06/15 04:57:11;;;;;;;26.27;18.45;;;;;;;11.64;87.49;101794.94;5025397;28;20033;-68
2022/06/15 04:59:36;;;;;;;27.70;18.55;;;;;;;11.73;87.53;101798.31;5026359;28;20362;-68
2022/06/15 05:02:02;;;;;;;28.50;19.75;;;;;;;11.77;87.39;101805.06;5025735;28;20030;-67
2022/06/15 05:04:27;;;;;;;26.83;19.33;;;;;;;11.77;87.09;101809.75;5026286;28;20029;-67
2022/06/15 05:06:52;;;;;;;29.30;20.15;;;;;;;11.80;86.97;101807.38;5024446;28;20025;-68
2022/06/15 05:09:18;;;;;;;30.23;19.80;;;;;;;11.82;87.54;101802.56;5026750;28;20033;-68
2022/06/15 05:11:43;;;;;;;25.88;19.95;;;;;;;11.88;87.67;101801.69;5024946;28;20068;-68
2022/06/15 05:14:09;;;;;;;25.80;20.27;;;;;;;11.91;87.40;101806.78;5025291;28;20103;-68
2022/06/15 05:16:36;;;;;;;27.92;21.10;;;;;;;11.99;87.45;101802.06;5024592;28;20034;-68
2022/06/15 05:19:02;;;;;;;28.25;21.10;;;;;;;12.04;88.24;101805.03;5025136;28;20030;-69
2022/06/15 05:21:27;;;;;;;30.52;20.48;;;;;;;12.08;87.81;101800.78;5026261;28;20040;-68
2022/06/15 05:23:53;;;;;;;34.80;21.17;;;;;;;12.15;87.48;101801.59;5024214;28;20030;-69
2022/06/15 05:26:18;;;;;;;29.10;20.25;;;;;;;12.30;84.56;101796.66;5025750;28;20433;-69
2022/06/15 05:28:45;;;;;;;27.73;21.13;;;;;;;12.38;85.29;101801.91;5025170;28;20044;-69
2022/06/15 05:31:19;;;;;;;30.48;22.52;;;;;;;12.49;85.40;101805.88;5026173;28;20099;-69
2022/06/15 05:33:44;;;;;;;28.92;22.08;;;;;;;12.58;84.77;101800.97;5025500;28;20036;-69
2022/06/15 05:36:12;;;;;;;32.67;20.73;;;;;;;12.67;83.90;101802.38;5024038;28;20033;-70
2022/06/15 05:38:38;;;;;;;27.95;21.52;;;;;;;12.77;84.57;101797.22;5026059;28;20444;-69
2022/06/15 05:41:04;;;;;;;33.22;22.63;;;;;;;12.84;85.45;101806.31;5025340;28;20105;-69
2022/06/15 05:43:31;;;;;;;30.13;23.05;;;;;;;12.92;85.06;101802.44;5024809;28;20029;-68
2022/06/15 05:45:56;;;;;;;31.38;22.17;;;;;;;13.05;85.13;101801.50;5018968;28;20030;-68
2022/06/15 05:48:22;;;;;;;32.83;21.88;;;;;;;13.15;85.52;101802.69;5006835;28;20557;-69
2022/06/15 05:50:47;;;;;;;32.95;22.85;;;;;;;13.29;83.98;101805.38;5026346;28;20417;-68
2022/06/15 05:53:13;;;;;;;35.33;23.08;;;;;;;13.44;82.57;101801.19;5025926;28;20043;-68
2022/06/15 05:55:38;;;;;;;29.13;21.40;;;;;;;13.59;81.14;101802.78;5014385;28;20025;-68
2022/06/15 05:58:03;;;;;;;30.80;22.80;;;;;;;13.62;81.99;101797.63;5004756;28;20049;-70
2022/06/15 06:00:29;;;;;;;35.58;21.30;;;;;;;13.69;81.05;101801.19;5022377;28;20538;-70
2022/06/15 06:02:55;;;;;;;31.90;22.15;;;;;;;13.78;81.78;101801.69;5018471;28;20477;-70
2022/06/15 06:05:20;;;;;;;34.30;21.52;;;;;;;13.91;81.26;101804.31;5025831;28;20080;-70
2022/06/15 06:07:46;;;;;;;32.58;21.20;;;;;;;14.11;80.08;101803.25;5025721;28;20320;-69
2022/06/15 06:10:11;;;;;;;34.42;20.55;;;;;;;14.26;79.17;101803.72;5022386;28;20038;-70
2022/06/15 06:12:37;;;;;;;32.35;20.48;;;;;;;14.50;79.38;101801.94;5024774;28;20049;-70
2022/06/15 06:15:03;;;;;;;29.58;20.30;;;;;;;14.71;77.29;101806.13;5016742;28;20460;-70
2022/06/15 06:17:29;;;;;;;32.10;20.33;;;;;;;14.69;76.77;101798.03;5005722;28;20092;-70
2022/06/15 06:19:54;;;;;;;30.90;19.65;;;;;;;14.73;76.21;101802.03;5012669;28;20429;-70
2022/06/15 06:22:19;;;;;;;29.83;18.38;;;;;;;14.74;77.06;101800.94;5025977;28;20021;-70
2022/06/15 06:24:45;;;;;;;29.65;16.73;;;;;;;14.95;73.44;101802.34;5025818;28;20466;-69
2022/06/15 06:27:15;;;;;;;31.70;18.17;;;;;;;14.93;75.64;101798.13;5021277;28;20036;-69
2022/06/15 06:29:40;;;;;;;27.42;16.58;;;;;;;15.11;72.77;101802.75;5024749;28;20017;-69
2022/06/15 06:32:07;;;;;;;24.55;16.73;;;;;;;15.16;74.37;101800.09;5023513;28;20070;-69
2022/06/15 06:34:32;;;;;;;32.03;17.75;;;;;;;15.19;73.74;101803.22;5024304;28;20029;-68
2022/06/15 06:36:59;;;;;;;24.75;16.45;;;;;;;15.25;73.11;101799.50;5024822;28;20026;-68
2022/06/15 06:39:28;;;;;;;29.50;16.60;;;;;;;15.33;73.08;101809.38;5024494;28;20041;-69
2022/06/15 06:41:55;;;;;;;27.45;15.85;;;;;;;15.47;71.56;101812.78;5023422;28;20063;-68
2022/06/15 06:44:20;;;;;;;28.30;15.07;;;;;;;15.51;73.22;101813.97;5025297;28;20113;-69
2022/06/15 06:46:48;;;;;;;27.08;15.07;;;;;;;15.66;71.89;101814.38;5023353;28;20116;-68
2022/06/15 06:49:14;;;;;;;27.52;15.07;;;;;;;15.75;72.22;101817.59;5024293;28;20028;-68
2022/06/15 06:51:41;;;;;;;23.45;14.32;;;;;;;15.89;71.90;101815.44;5017242;28;20112;-68
2022/06/15 06:54:08;;;;;;;20.90;12.98;;;;;;;15.99;69.83;101813.75;5017290;28;20033;-67
2022/06/15 06:56:35;;;;;;;22.27;12.50;;;;;;;16.08;70.31;101816.97;5022793;28;20136;-68
2022/06/15 06:59:01;;;;;;;20.85;13.20;;;;;;;16.25;69.25;101809.59;5020152;28;20042;-68
2022/06/15 07:01:26;;;;;;;21.10;12.55;;;;;;;16.34;68.91;101815.59;5015696;28;20038;-68
2022/06/15 07:03:52;;;;;;;20.52;12.70;;;;;;;16.44;67.59;101817.75;5020767;28;20030;-68
2022/06/15 07:06:17;;;;;;;21.52;13.10;;;;;;;16.50;71.84;101813.97;5030365;28;20120;-69
2022/06/15 07:08:42;;;;;;;20.17;11.93;;;;;;;16.65;68.09;101813.44;5025746;28;20075;-69
2022/06/15 07:11:10;;;;;;;18.60;11.63;;;;;;;16.75;66.17;101805.34;5031522;28;20030;-69
2022/06/15 07:13:36;;;;;;;18.98;10.98;;;;;;;16.88;66.45;101810.59;5026416;28;20069;-69
2022/06/15 07:16:10;;;;;;;19.10;10.75;;;;;;;16.93;67.94;101820.91;5031145;28;20068;-70
2022/06/15 07:18:35;;;;;;;19.90;11.30;;;;;;;16.97;66.64;101819.31;5026304;28;20060;-68
2022/06/15 07:21:06;;;;;;;18.00;10.82;;;;;;;17.07;67.24;101822.28;5027781;28;20068;-69
2022/06/15 07:23:31;;;;;;;20.02;11.02;;;;;;;17.16;69.52;101825.50;5028659;28;20042;-69
2022/06/15 07:25:57;;;;;;;14.98;10.68;;;;;;;17.23;69.30;101826.16;5026046;28;20417;-69
2022/06/15 07:28:22;;;;;;;15.10;10.50;;;;;;;17.32;66.96;101828.28;5024046;28;20138;-69
2022/06/15 07:30:48;;;;;;;14.77;9.60;;;;;;;17.43;65.85;101829.28;5024031;28;20030;-70
2022/06/15 07:33:15;;;;;;;15.55;8.77;;;;;;;17.52;63.59;101813.06;5025426;28;20025;-70
2022/06/15 07:35:41;;;;;;;15.45;8.82;;;;;;;17.61;64.24;101825.44;5025948;28;20026;-70
2022/06/15 07:38:06;;;;;;;15.02;8.05;;;;;;;17.73;63.25;101828.13;5023074;28;20033;-70
2022/06/15 07:40:32;;;;;;;14.57;8.00;;;;;;;17.82;63.65;101829.38;5027763;28;20021;-70
2022/06/15 07:42:57;;;;;;;17.27;8.50;;;;;;;17.84;64.09;101816.94;5027736;28;20477;-69
2022/06/15 07:45:24;;;;;;;12.57;6.82;;;;;;;18.06;60.58;101822.50;5027072;28;20051;-67
2022/06/15 07:50:39;;;;;;;;;;;;;;;18.28;60.17;101821.69;4995480;28;20037;-68
2022/06/15 07:53:06;;;;;;;11.48;6.50;;;;;;;18.22;60.83;101820.78;5024378;28;19913;-68
2022/06/15 07:55:35;;;;;;;11.48;6.25;;;;;;;18.25;59.65;101819.41;5027906;28;20116;-68
2022/06/15 07:58:01;;;;;;;11.85;6.00;;;;;;;18.33;60.54;101822.56;5026652;28;20076;-68
2022/06/15 08:00:28;;;;;;;10.05;5.20;;;;;;;18.46;59.67;101814.97;5028292;28;20044;-67
2022/06/15 08:02:53;;;;;;;11.15;5.22;;;;;;;18.51;59.79;101815.84;5027699;28;20363;-68
2022/06/15 08:05:20;;;;;;;14.57;5.70;;;;;;;18.59;58.18;101825.66;5024372;28;20120;-70
2022/06/15 08:07:47;;;;;;;12.48;5.72;;;;;;;18.72;58.32;101818.91;5024814;28;20025;-68
2022/06/15 08:10:16;;;;;;;13.73;5.53;;;;;;;18.69;60.55;101822.19;5023597;28;20018;-68
2022/06/15 08:12:42;;;;;;;11.75;5.40;;;;;;;18.80;60.92;101822.03;5025605;28;20473;-69
2022/06/15 08:15:08;;;;;;;11.40;5.10;;;;;;;18.92;61.03;101819.94;5024566;28;20021;-68
2022/06/15 08:17:38;;;;;;;13.27;5.07;;;;;;;19.04;60.41;101822.56;5026203;28;20359;-68
2022/06/15 08:20:15;;;;;;;11.18;5.32;;;;;;;19.15;59.54;101818.75;5024623;28;20072;-68
2022/06/15 08:22:44;;;;;;;10.00;4.32;;;;;;;19.21;56.76;101821.59;5016001;28;20089;-69
2022/06/15 08:25:14;;;;;;;13.20;4.90;;;;;;;19.28;57.46;101817.50;5024552;28;20042;-68
2022/06/15 08:27:40;;;;;;;11.65;4.53;;;;;;;19.32;55.14;101818.66;5022358;28;20021;-69
2022/06/15 08:30:10;;;;;;;10.35;4.30;;;;;;;19.33;54.82;101822.28;5023796;28;20549;-69
2022/06/15 08:32:36;;;;;;;13.55;4.80;;;;;;;19.29;54.98;101815.56;5011916;28;20029;-69
2022/06/15 08:35:02;;;;;;;13.18;4.63;;;;;;;19.37;53.25;101817.88;5023839;28;20433;-69
2022/06/15 08:37:28;;;;;;;10.23;4.47;;;;;;;19.42;54.49;101817.91;5025937;28;20217;-69
2022/06/15 08:39:54;;;;;;;12.13;4.55;;;;;;;19.50;57.10;101813.75;5023743;28;20021;-69
2022/06/15 08:42:37;;;;;;;12.57;4.55;;;;;;;19.61;57.29;101813.59;5025166;28;20051;-70
2022/06/15 08:45:14;;;;;;;12.70;4.80;;;;;;;19.79;54.29;101812.34;5021338;28;20033;-69
2022/06/15 08:47:56;;;;;;;9.07;5.00;;;;;;;19.82;53.83;101816.53;5019725;28;20113;-69
2022/06/15 08:50:32;;;;;;;10.68;4.75;;;;;;;19.84;52.66;101822.69;5023888;28;20033;-69
2022/06/15 08:53:18;;;;;;;11.05;4.40;;;;;;;19.98;56.34;101825.84;5024734;28;20479;-70
2022/06/15 08:55:58;;;;;;;10.88;4.60;;;;;;;20.17;53.08;101822.31;5016829;28;20033;-69
2022/06/15 08:58:46;;;;;;;12.15;5.03;;;;;;;20.25;53.29;101825.69;5011255;28;20036;-69
2022/06/15 09:01:30;;;;;;;12.07;4.35;;;;;;;20.27;51.99;101823.47;5016560;28;20075;-70
2022/06/15 09:04:20;;;;;;;10.35;4.70;;;;;;;20.38;52.59;101822.41;5009141;28;20048;-71
2022/06/15 09:07:10;;;;;;;10.40;4.40;;;;;;;20.67;54.04;101820.84;5016685;28;20131;-70
2022/06/15 09:09:45;;;;;;;10.40;4.55;;;;;;;20.85;52.87;101821.47;5024761;28;20040;-68
2022/06/15 09:15:27;;;;;;;13.25;6.05;;;;;;;20.99;52.36;101806.69;5015736;28;20048;-68
2022/06/15 09:17:56;;;;;;;11.75;4.55;;;;;;;21.09;50.90;101810.63;5019354;28;20084;-68
2022/06/15 09:20:30;;;;;;;12.63;4.32;;;;;;;21.10;51.48;101810.34;5025472;28;20033;-68
2022/06/15 09:23:07;;;;;;;12.25;4.30;;;;;;;21.18;50.63;101815.34;5025639;28;20351;-68
2022/06/15 09:25:40;;;;;;;11.95;4.35;;;;;;;21.53;50.03;101812.88;5026683;28;20034;-68
2022/06/15 09:28:13;;;;;;;10.23;4.28;;;;;;;21.84;53.67;101808.91;5018259;28;20025;-69
2022/06/15 09:30:41;;;;;;;13.68;4.28;;;;;;;22.02;49.18;101813.06;5026530;28;20113;-69
2022/06/15 09:33:14;;;;;;;10.20;4.38;;;;;;;22.32;50.80;101809.34;5025330;28;20500;-69
2022/06/15 09:35:53;;;;;;;11.63;3.88;;;;;;;22.82;49.04;101803.78;5026094;28;20392;-68
2022/06/15 09:38:20;;;;;;;10.80;3.75;;;;;;;24.37;44.13;101798.13;5023365;28;20029;-69
2022/06/15 09:41:01;;;;;;;10.32;3.70;;;;;;;25.96;40.42;101810.53;5023456;28;20057;-69
2022/06/15 09:43:39;;;;;;;12.73;3.63;;;;;;;27.45;37.17;101806.06;5023401;28;20048;-69
2022/06/15 09:46:19;;;;;;;9.30;3.30;;;;;;;29.12;33.94;101808.00;5019861;28;20382;-71
2022/06/15 09:48:58;;;;;;;12.50;3.40;;;;;;;30.64;32.47;101810.16;5015715;28;20393;-71
2022/06/15 09:51:50;;;;;;;12.95;3.75;;;;;;;31.48;32.91;101813.03;5015282;28;20047;-70
2022/06/15 09:54:53;;;;;;;9.98;3.83;;;;;;;31.25;27.78;101815.38;5013279;28;20352;-70
2022/06/15 09:57:20;;;;;;;10.85;3.30;;;;;;;31.21;28.12;101815.22;5017129;28;20080;-69
2022/06/15 09:59:45;;;;;;;11.32;3.10;;;;;;;32.64;29.90;101803.19;5021632;28;20037;-70
2022/06/15 10:02:28;;;;;;;8.20;3.45;;;;;;;32.43;27.96;101808.19;5022604;28;20261;-71
2022/06/15 10:04:54;;;;;;;10.35;3.50;;;;;;;32.95;25.25;101807.41;5019351;28;20041;-70
2022/06/15 10:07:29;;;;;;;8.77;3.00;;;;;;;33.47;28.61;101804.50;5020893;28;20057;-70
2022/06/15 10:10:11;;;;;;;10.63;3.30;;;;;;;34.16;22.96;101792.88;5025256;28;20033;-70
2022/06/15 10:13:02;;;;;;;7.57;3.00;;;;;;;34.64;23.92;101803.06;5023513;28;20103;-70
2022/06/15 10:15:40;;;;;;;11.80;3.60;;;;;;;33.58;25.32;101801.13;5022345;28;20087;-70
2022/06/15 10:18:23;;;;;;;10.10;4.50;;;;;;;33.10;25.51;101802.97;5024061;28;20478;-70
2022/06/15 10:21:08;;;;;;;8.70;3.30;;;;;;;33.48;26.79;101797.63;5026027;28;20045;-70
2022/06/15 10:23:49;;;;;;;11.63;3.80;;;;;;;33.60;27.32;101793.03;5016492;28;20370;-70
2022/06/15 10:26:43;;;;;;;9.68;3.10;;;;;;;34.60;25.50;101785.00;5024089;28;20362;-70
2022/06/15 10:29:14;;;;;;;11.30;4.20;;;;;;;34.71;26.15;101780.38;4993330;28;20482;-70
2022/06/15 10:31:41;;;;;;;11.57;3.63;;;;;;;34.92;25.47;101785.72;5025107;28;20437;-70
2022/06/15 10:34:22;;;;;;;9.77;3.70;;;;;;;34.14;26.15;101789.59;5028902;28;20030;-70
2022/06/15 10:36:54;;;;;;;13.18;4.07;;;;;;;32.89;27.08;101795.44;5027529;28;20029;-70
2022/06/15 10:39:25;;;;;;;9.45;3.88;;;;;;;32.12;27.73;101792.53;5028955;28;20022;-70
2022/06/15 10:41:52;;;;;;;9.85;3.30;;;;;;;30.46;30.25;101791.59;5026083;28;20087;-70
2022/06/15 10:44:31;;;;;;;10.10;3.53;;;;;;;29.33;31.71;101789.16;5027989;28;20040;-70
2022/06/15 10:47:04;;;;;;;10.13;3.92;;;;;;;28.33;32.58;101787.25;5028034;28;20044;-70
2022/06/15 10:49:33;;;;;;;9.80;3.53;;;;;;;27.47;34.31;101786.81;5028363;28;20033;-70
2022/06/15 10:51:59;;;;;;;9.88;4.25;;;;;;;26.96;33.85;101791.72;5025178;28;20104;-70
2022/06/15 11:03:21;;;;;;;11.73;3.90;;;;;;;26.22;36.14;101779.88;5018843;28;20108;-70
2022/06/15 11:05:49;;;;;;;10.70;4.25;;;;;;;26.20;37.05;101777.34;5021207;28;20030;-70
2022/06/15 11:08:19;;;;;;;11.70;4.78;;;;;;;26.08;35.08;101782.69;5027354;28;20030;-70
2022/06/15 11:10:52;;;;;;;15.90;4.78;;;;;;;25.85;36.60;101776.09;5026817;28;20487;-69
2022/06/15 11:13:43;;;;;;;14.85;4.18;;;;;;;25.74;37.50;101774.59;5024956;28;20168;-70
2022/06/15 11:19:18;;;;;;;16.55;5.20;;;;;;;26.03;36.14;101772.34;5024544;28;20076;-70
2022/06/15 11:22:16;;;;;;;12.87;4.97;;;;;;;26.13;38.65;101769.34;5008318;28;20057;-70
2022/06/15 11:25:09;;;;;;;14.52;4.10;;;;;;;26.44;40.83;101759.41;5017893;28;20852;-70
2022/06/15 11:27:41;;;;;;;13.02;4.15;;;;;;;26.35;38.69;101764.94;5017096;28;20116;-69
2022/06/15 11:30:17;;;;;;;11.38;4.45;;;;;;;26.39;39.43;101760.34;5026431;28;20029;-70
2022/06/15 11:33:01;;;;;;;11.45;4.88;;;;;;;26.49;38.61;101762.94;5024932;28;20021;-70
2022/06/15 11:35:41;;;;;;;10.73;4.47;;;;;;;26.49;39.42;101762.94;5025905;28;20188;-69
2022/06/15 11:38:26;;;;;;;12.13;4.57;;;;;;;26.69;39.54;101760.81;5025985;28;20025;-69
2022/06/15 11:41:03;;;;;;;11.40;4.80;;;;;;;26.69;36.07;101755.19;5017167;28;20029;-69
2022/06/15 11:43:36;;;;;;;11.75;4.50;;;;;;;26.70;36.79;101762.47;5026858;28;20033;-69
2022/06/15 11:46:14;;;;;;;9.10;4.80;;;;;;;26.47;40.19;101762.44;5024125;28;20025;-69
2022/06/15 11:48:51;;;;;;;10.88;5.00;;;;;;;26.64;39.51;101768.25;5020616;28;20030;-69
2022/06/15 11:51:37;;;;;;;12.48;4.95;;;;;;;26.77;41.17;101772.19;5019608;28;20520;-69